sensor_id;sensor_type;location;lat;lon;timestamp;temperature;humidity
4054;DHT22;2042;47.956;9.222;2023-02-03T00:00:36;2.90;1.00
4054;DHT22;2042;47.956;9.222;2023-02-03T00:03:02;2.90;1.00
4054;DHT22;2042;47.956;9.222;2023-02-03T00:05:29;2.90;1.00
4054;DHT22;2042;47.956;9.222;2023-02-03T00:07:55;2.90;1.00
4054;DHT22;2042;47.956;9.222;2023-02-03T00:10:21;2.90;1.00
4054;DHT22;2042;47.956;9.222;2023-02-03T00:12:48;2.90;1.00
4054;DHT22;2042;47.956;9.222;2023-02-03T00:15:14;2.90;1.00
4054;DHT22;2042;47.956;9.222;2023-02-03T00:17:40;2.80;1.00
4054;DHT22;2042;47.956;9.222;2023-02-03T00:20:06;2.80;1.00
4054;DHT22;2042;47.956;9.222;2023-02-03T00:22:32;2.80;1.00
4054;DHT22;2042;47.956;9.222;2023-02-03T00:24:58;2.70;1.00
4054;DHT22;2042;47.956;9.222;2023-02-03T00:27:24;2.70;1.00
4054;DHT22;2042;47.956;9.222;2023-02-03T00:29:50;2.70;1.00
4054;DHT22;2042;47.956;9.222;2023-02-03T00:32:16;2.80;1.00
4054;DHT22;2042;47.956;9.222;2023-02-03T00:34:41;2.80;1.00
4054;DHT22;2042;47.956;9.222;2023-02-03T00:37:07;2.80;1.00
4054;DHT22;2042;47.956;9.222;2023-02-03T00:39:35;2.80;1.00
4054;DHT22;2042;47.956;9.222;2023-02-03T00:42:03;2.80;1.00
4054;DHT22;2042;47.956;9.222;2023-02-03T00:44:29;2.80;1.00
4054;DHT22;2042;47.956;9.222;2023-02-03T00:46:54;2.80;1.00
4054;DHT22;2042;47.956;9.222;2023-02-03T00:49:20;2.80;1.00
4054;DHT22;2042;47.956;9.222;2023-02-03T00:51:45;2.80;1.00
4054;DHT22;2042;47.956;9.222;2023-02-03T00:54:11;2.80;1.00
4054;DHT22;2042;47.956;9.222;2023-02-03T00:56:38;2.80;1.00
4054;DHT22;2042;47.956;9.222;2023-02-03T00:59:04;2.80;1.00
4054;DHT22;2042;47.956;9.222;2023-02-03T01:01:30;2.70;1.00
4054;DHT22;2042;47.956;9.222;2023-02-03T01:03:55;2.70;1.00
4054;DHT22;2042;47.956;9.222;2023-02-03T01:06:22;2.70;1.00
4054;DHT22;2042;47.956;9.222;2023-02-03T01:08:49;2.70;1.00
4054;DHT22;2042;47.956;9.222;2023-02-03T01:11:19;2.70;1.00
4054;DHT22;2042;47.956;9.222;2023-02-03T01:13:46;2.70;1.00
4054;DHT22;2042;47.956;9.222;2023-02-03T01:16:14;2.70;1.00
4054;DHT22;2042;47.956;9.222;2023-02-03T01:18:40;2.70;1.00
4054;DHT22;2042;47.956;9.222;2023-02-03T01:21:10;2.70;1.00
4054;DHT22;2042;47.956;9.222;2023-02-03T01:23:36;2.70;1.00
4054;DHT22;2042;47.956;9.222;2023-02-03T01:26:07;2.70;1.00
4054;DHT22;2042;47.956;9.222;2023-02-03T01:28:34;2.80;1.00
4054;DHT22;2042;47.956;9.222;2023-02-03T01:33:34;2.80;1.00
4054;DHT22;2042;47.956;9.222;2023-02-03T01:36:00;2.80;1.00
4054;DHT22;2042;47.956;9.222;2023-02-03T01:38:26;2.80;1.00
4054;DHT22;2042;47.956;9.222;2023-02-03T01:40:51;2.80;1.00
4054;DHT22;2042;47.956;9.222;2023-02-03T01:43:28;2.80;1.00
4054;DHT22;2042;47.956;9.222;2023-02-03T01:45:55;2.80;1.00
4054;DHT22;2042;47.956;9.222;2023-02-03T01:48:21;2.80;1.00
4054;DHT22;2042;47.956;9.222;2023-02-03T01:50:47;2.80;1.00
4054;DHT22;2042;47.956;9.222;2023-02-03T01:53:13;2.80;1.00
4054;DHT22;2042;47.956;9.222;2023-02-03T01:55:46;2.80;1.00
4054;DHT22;2042;47.956;9.222;2023-02-03T01:58:15;2.80;1.00
4054;DHT22;2042;47.956;9.222;2023-02-03T02:00:44;2.80;1.00
4054;DHT22;2042;47.956;9.222;2023-02-03T02:03:11;2.80;1.00
4054;DHT22;2042;47.956;9.222;2023-02-03T02:05:53;2.80;1.00
4054;DHT22;2042;47.956;9.222;2023-02-03T02:08:21;2.80;1.00
4054;DHT22;2042;47.956;9.222;2023-02-03T02:10:48;2.80;1.00
4054;DHT22;2042;47.956;9.222;2023-02-03T02:13:15;2.80;1.00
4054;DHT22;2042;47.956;9.222;2023-02-03T02:15:57;2.80;1.00
4054;DHT22;2042;47.956;9.222;2023-02-03T02:26:41;2.80;1.00
4054;DHT22;2042;47.956;9.222;2023-02-03T02:29:18;2.80;1.00
4054;DHT22;2042;47.956;9.222;2023-02-03T02:37:25;2.90;1.00
4054;DHT22;2042;47.956;9.222;2023-02-03T02:42:35;2.90;1.00
4054;DHT22;2042;47.956;9.222;2023-02-03T02:45:11;2.80;1.00
4054;DHT22;2042;47.956;9.222;2023-02-03T02:47:39;2.80;1.00
4054;DHT22;2042;47.956;9.222;2023-02-03T02:50:15;2.80;1.00
4054;DHT22;2042;47.956;9.222;2023-02-03T02:52:45;2.80;1.00
4054;DHT22;2042;47.956;9.222;2023-02-03T02:55:21;2.80;1.00
4054;DHT22;2042;47.956;9.222;2023-02-03T02:57:53;2.80;1.00
4054;DHT22;2042;47.956;9.222;2023-02-03T03:00:20;2.80;1.00
4054;DHT22;2042;47.956;9.222;2023-02-03T03:02:46;2.80;1.00
4054;DHT22;2042;47.956;9.222;2023-02-03T03:05:12;2.80;1.00
4054;DHT22;2042;47.956;9.222;2023-02-03T03:07:55;2.80;1.00
4054;DHT22;2042;47.956;9.222;2023-02-03T03:10:24;2.80;1.00
4054;DHT22;2042;47.956;9.222;2023-02-03T03:12:58;2.80;1.00
4054;DHT22;2042;47.956;9.222;2023-02-03T03:15:27;2.80;1.00
4054;DHT22;2042;47.956;9.222;2023-02-03T03:17:58;2.80;1.00
4054;DHT22;2042;47.956;9.222;2023-02-03T03:20:26;2.80;1.00
4054;DHT22;2042;47.956;9.222;2023-02-03T03:22:57;2.80;1.00
4054;DHT22;2042;47.956;9.222;2023-02-03T03:25:30;2.80;1.00
4054;DHT22;2042;47.956;9.222;2023-02-03T03:28:03;2.80;1.00
4054;DHT22;2042;47.956;9.222;2023-02-03T03:30:35;2.80;1.00
4054;DHT22;2042;47.956;9.222;2023-02-03T03:33:02;2.80;1.00
4054;DHT22;2042;47.956;9.222;2023-02-03T03:38:20;2.80;1.00
4054;DHT22;2042;47.956;9.222;2023-02-03T03:40:56;2.80;1.00
4054;DHT22;2042;47.956;9.222;2023-02-03T03:43:28;2.70;1.00
4054;DHT22;2042;47.956;9.222;2023-02-03T03:46:16;2.70;1.00
4054;DHT22;2042;47.956;9.222;2023-02-03T03:48:49;2.60;1.00
4054;DHT22;2042;47.956;9.222;2023-02-03T03:51:26;2.60;1.00
4054;DHT22;2042;47.956;9.222;2023-02-03T03:53:55;2.60;1.00
4054;DHT22;2042;47.956;9.222;2023-02-03T03:56:26;2.60;1.00
4054;DHT22;2042;47.956;9.222;2023-02-03T03:58:53;2.60;1.00
4054;DHT22;2042;47.956;9.222;2023-02-03T04:01:20;2.60;1.00
4054;DHT22;2042;47.956;9.222;2023-02-03T04:03:55;2.50;1.00
4054;DHT22;2042;47.956;9.222;2023-02-03T04:06:22;2.50;1.00
4054;DHT22;2042;47.956;9.222;2023-02-03T04:08:48;2.40;1.00
4054;DHT22;2042;47.956;9.222;2023-02-03T04:11:14;2.40;1.00
4054;DHT22;2042;47.956;9.222;2023-02-03T04:13:59;2.40;1.00
4054;DHT22;2042;47.956;9.222;2023-02-03T04:16:25;2.40;1.00
4054;DHT22;2042;47.956;9.222;2023-02-03T04:18:50;2.40;1.00
4054;DHT22;2042;47.956;9.222;2023-02-03T04:21:16;2.50;1.00
4054;DHT22;2042;47.956;9.222;2023-02-03T04:23:42;2.50;1.00
4054;DHT22;2042;47.956;9.222;2023-02-03T04:26:07;2.50;1.00
4054;DHT22;2042;47.956;9.222;2023-02-03T04:28:33;2.50;1.00
4054;DHT22;2042;47.956;9.222;2023-02-03T04:31:01;2.50;1.00
4054;DHT22;2042;47.956;9.222;2023-02-03T04:33:27;2.50;1.00
4054;DHT22;2042;47.956;9.222;2023-02-03T04:35:52;2.60;1.00
4054;DHT22;2042;47.956;9.222;2023-02-03T04:38:18;2.60;1.00
4054;DHT22;2042;47.956;9.222;2023-02-03T04:40:45;2.60;1.00
4054;DHT22;2042;47.956;9.222;2023-02-03T04:43:10;2.60;1.00
4054;DHT22;2042;47.956;9.222;2023-02-03T04:45:37;2.60;1.00
4054;DHT22;2042;47.956;9.222;2023-02-03T04:48:03;2.60;1.00
4054;DHT22;2042;47.956;9.222;2023-02-03T04:50:31;2.60;1.00
4054;DHT22;2042;47.956;9.222;2023-02-03T04:52:57;2.60;1.00
4054;DHT22;2042;47.956;9.222;2023-02-03T04:55:26;2.60;1.00
4054;DHT22;2042;47.956;9.222;2023-02-03T04:57:56;2.70;1.00
4054;DHT22;2042;47.956;9.222;2023-02-03T05:00:22;2.70;1.00
4054;DHT22;2042;47.956;9.222;2023-02-03T05:02:48;2.60;1.00
4054;DHT22;2042;47.956;9.222;2023-02-03T05:05:13;2.70;1.00
4054;DHT22;2042;47.956;9.222;2023-02-03T05:07:39;2.70;1.00
4054;DHT22;2042;47.956;9.222;2023-02-03T05:10:05;2.70;1.00
4054;DHT22;2042;47.956;9.222;2023-02-03T05:12:31;2.70;1.00
4054;DHT22;2042;47.956;9.222;2023-02-03T05:14:57;2.70;1.00
4054;DHT22;2042;47.956;9.222;2023-02-03T05:17:22;2.70;1.00
4054;DHT22;2042;47.956;9.222;2023-02-03T05:19:48;2.70;1.00
4054;DHT22;2042;47.956;9.222;2023-02-03T05:22:14;2.70;1.00
4054;DHT22;2042;47.956;9.222;2023-02-03T05:24:39;2.70;1.00
4054;DHT22;2042;47.956;9.222;2023-02-03T05:27:05;2.70;1.00
4054;DHT22;2042;47.956;9.222;2023-02-03T05:29:31;2.70;1.00
4054;DHT22;2042;47.956;9.222;2023-02-03T05:31:56;2.70;1.00
4054;DHT22;2042;47.956;9.222;2023-02-03T05:34:22;2.70;1.00
4054;DHT22;2042;47.956;9.222;2023-02-03T05:36:47;2.70;1.00
4054;DHT22;2042;47.956;9.222;2023-02-03T05:39:13;2.60;1.00
4054;DHT22;2042;47.956;9.222;2023-02-03T05:41:39;2.50;1.00
4054;DHT22;2042;47.956;9.222;2023-02-03T05:44:22;2.50;1.00
4054;DHT22;2042;47.956;9.222;2023-02-03T05:46:48;2.40;1.00
4054;DHT22;2042;47.956;9.222;2023-02-03T05:49:14;2.40;1.00
4054;DHT22;2042;47.956;9.222;2023-02-03T05:51:40;2.30;1.00
4054;DHT22;2042;47.956;9.222;2023-02-03T05:54:06;2.20;1.00
4054;DHT22;2042;47.956;9.222;2023-02-03T05:56:32;2.20;1.00
4054;DHT22;2042;47.956;9.222;2023-02-03T05:58:57;2.20;1.00
4054;DHT22;2042;47.956;9.222;2023-02-03T06:01:23;2.10;1.00
4054;DHT22;2042;47.956;9.222;2023-02-03T06:03:49;2.10;1.00
4054;DHT22;2042;47.956;9.222;2023-02-03T06:06:15;2.00;1.00
4054;DHT22;2042;47.956;9.222;2023-02-03T06:08:41;2.00;1.00
4054;DHT22;2042;47.956;9.222;2023-02-03T06:11:07;2.00;1.00
4054;DHT22;2042;47.956;9.222;2023-02-03T06:13:33;2.10;1.00
4054;DHT22;2042;47.956;9.222;2023-02-03T06:15:58;2.10;1.00
4054;DHT22;2042;47.956;9.222;2023-02-03T06:18:24;2.10;1.00
4054;DHT22;2042;47.956;9.222;2023-02-03T06:20:50;2.20;1.00
4054;DHT22;2042;47.956;9.222;2023-02-03T06:23:16;2.30;1.00
4054;DHT22;2042;47.956;9.222;2023-02-03T06:25:46;2.40;1.00
4054;DHT22;2042;47.956;9.222;2023-02-03T06:28:12;2.50;1.00
4054;DHT22;2042;47.956;9.222;2023-02-03T06:30:37;2.60;1.00
4054;DHT22;2042;47.956;9.222;2023-02-03T06:33:03;2.60;1.00
4054;DHT22;2042;47.956;9.222;2023-02-03T06:35:29;2.70;1.00
4054;DHT22;2042;47.956;9.222;2023-02-03T06:37:54;2.70;1.00
4054;DHT22;2042;47.956;9.222;2023-02-03T06:40:20;2.80;1.00
4054;DHT22;2042;47.956;9.222;2023-02-03T06:42:46;2.80;1.00
4054;DHT22;2042;47.956;9.222;2023-02-03T06:45:13;2.80;1.00
4054;DHT22;2042;47.956;9.222;2023-02-03T06:47:40;2.80;1.00
4054;DHT22;2042;47.956;9.222;2023-02-03T06:50:06;2.80;1.00
4054;DHT22;2042;47.956;9.222;2023-02-03T06:52:32;2.80;1.00
4054;DHT22;2042;47.956;9.222;2023-02-03T06:54:58;2.80;1.00
4054;DHT22;2042;47.956;9.222;2023-02-03T06:57:24;2.80;1.00
4054;DHT22;2042;47.956;9.222;2023-02-03T06:59:49;2.80;1.00
4054;DHT22;2042;47.956;9.222;2023-02-03T07:02:15;2.80;1.00
4054;DHT22;2042;47.956;9.222;2023-02-03T07:04:40;2.80;1.00
4054;DHT22;2042;47.956;9.222;2023-02-03T07:07:10;2.80;1.00
4054;DHT22;2042;47.956;9.222;2023-02-03T07:09:36;2.90;1.00
4054;DHT22;2042;47.956;9.222;2023-02-03T07:12:01;2.90;1.00
4054;DHT22;2042;47.956;9.222;2023-02-03T07:14:27;2.80;1.00
4054;DHT22;2042;47.956;9.222;2023-02-03T07:16:53;2.80;1.00
4054;DHT22;2042;47.956;9.222;2023-02-03T07:19:18;2.80;1.00
4054;DHT22;2042;47.956;9.222;2023-02-03T07:21:44;2.80;1.00
4054;DHT22;2042;47.956;9.222;2023-02-03T07:24:09;2.90;1.00
4054;DHT22;2042;47.956;9.222;2023-02-03T07:26:35;2.90;1.00
4054;DHT22;2042;47.956;9.222;2023-02-03T07:29:01;2.90;1.00
4054;DHT22;2042;47.956;9.222;2023-02-03T07:31:26;2.90;1.00
4054;DHT22;2042;47.956;9.222;2023-02-03T07:33:53;2.90;1.00
4054;DHT22;2042;47.956;9.222;2023-02-03T07:36:21;2.90;1.00
4054;DHT22;2042;47.956;9.222;2023-02-03T07:38:48;2.90;1.00
4054;DHT22;2042;47.956;9.222;2023-02-03T07:41:14;3.00;1.00
4054;DHT22;2042;47.956;9.222;2023-02-03T07:43:40;3.00;1.00
4054;DHT22;2042;47.956;9.222;2023-02-03T07:46:06;3.00;1.00
4054;DHT22;2042;47.956;9.222;2023-02-03T07:48:31;3.00;1.00
4054;DHT22;2042;47.956;9.222;2023-02-03T07:50:57;3.10;1.00
4054;DHT22;2042;47.956;9.222;2023-02-03T07:53:23;3.10;1.00
4054;DHT22;2042;47.956;9.222;2023-02-03T07:55:48;3.10;1.00
4054;DHT22;2042;47.956;9.222;2023-02-03T07:58:14;3.10;1.00
4054;DHT22;2042;47.956;9.222;2023-02-03T08:00:42;3.20;1.00
4054;DHT22;2042;47.956;9.222;2023-02-03T08:03:08;3.20;1.00
4054;DHT22;2042;47.956;9.222;2023-02-03T08:05:33;3.30;1.00
4054;DHT22;2042;47.956;9.222;2023-02-03T08:07:59;3.30;1.00
4054;DHT22;2042;47.956;9.222;2023-02-03T08:10:26;3.40;1.00
4054;DHT22;2042;47.956;9.222;2023-02-03T08:12:53;3.50;1.00
4054;DHT22;2042;47.956;9.222;2023-02-03T08:15:19;3.60;1.00
4054;DHT22;2042;47.956;9.222;2023-02-03T08:17:45;3.70;1.00
4054;DHT22;2042;47.956;9.222;2023-02-03T08:20:11;3.80;1.00
4054;DHT22;2042;47.956;9.222;2023-02-03T08:22:37;3.80;1.00
4054;DHT22;2042;47.956;9.222;2023-02-03T08:25:03;3.90;1.00
4054;DHT22;2042;47.956;9.222;2023-02-03T08:27:30;3.90;1.00
4054;DHT22;2042;47.956;9.222;2023-02-03T08:29:56;3.90;1.00
4054;DHT22;2042;47.956;9.222;2023-02-03T08:32:23;3.90;1.00
4054;DHT22;2042;47.956;9.222;2023-02-03T08:34:50;4.20;1.00
4054;DHT22;2042;47.956;9.222;2023-02-03T08:37:20;4.60;1.00
4054;DHT22;2042;47.956;9.222;2023-02-03T08:39:49;4.80;1.00
4054;DHT22;2042;47.956;9.222;2023-02-03T08:42:15;5.00;1.00
4054;DHT22;2042;47.956;9.222;2023-02-03T08:44:41;5.40;1.00
4054;DHT22;2042;47.956;9.222;2023-02-03T08:47:10;5.90;1.00
4054;DHT22;2042;47.956;9.222;2023-02-03T08:49:38;6.60;1.00
4054;DHT22;2042;47.956;9.222;2023-02-03T09:02:29;10.00;1.00
4054;DHT22;2042;47.956;9.222;2023-02-03T09:04:56;10.20;1.00
4054;DHT22;2042;47.956;9.222;2023-02-03T09:07:23;10.60;1.00
4054;DHT22;2042;47.956;9.222;2023-02-03T09:09:48;11.20;1.00
4054;DHT22;2042;47.956;9.222;2023-02-03T09:12:14;11.10;1.00
4054;DHT22;2042;47.956;9.222;2023-02-03T09:14:40;10.90;1.00
4054;DHT22;2042;47.956;9.222;2023-02-03T09:30:33;8.80;1.00
4054;DHT22;2042;47.956;9.222;2023-02-03T09:32:59;8.20;1.00
4054;DHT22;2042;47.956;9.222;2023-02-03T09:35:26;8.10;1.00
4054;DHT22;2042;47.956;9.222;2023-02-03T09:37:53;8.00;1.00
4054;DHT22;2042;47.956;9.222;2023-02-03T09:40:26;7.80;1.00
4054;DHT22;2042;47.956;9.222;2023-02-03T09:45:44;7.30;1.00
4054;DHT22;2042;47.956;9.222;2023-02-03T09:48:33;7.00;1.00
4054;DHT22;2042;47.956;9.222;2023-02-03T09:51:00;6.60;1.00
4054;DHT22;2042;47.956;9.222;2023-02-03T09:53:40;6.30;1.00
4054;DHT22;2042;47.956;9.222;2023-02-03T09:56:31;6.10;1.00
4054;DHT22;2042;47.956;9.222;2023-02-03T09:58:58;6.10;1.00
4054;DHT22;2042;47.956;9.222;2023-02-03T10:04:33;6.50;1.00
4054;DHT22;2042;47.956;9.222;2023-02-03T10:10:06;7.10;1.00
4054;DHT22;2042;47.956;9.222;2023-02-03T10:12:46;7.60;1.00
4054;DHT22;2042;47.956;9.222;2023-02-03T10:17:58;8.90;1.00
4054;DHT22;2042;47.956;9.222;2023-02-03T10:20:34;9.50;1.00
4054;DHT22;2042;47.956;9.222;2023-02-03T10:23:12;10.80;1.00
4054;DHT22;2042;47.956;9.222;2023-02-03T10:25:51;11.90;1.00
4054;DHT22;2042;47.956;9.222;2023-02-03T10:28:29;11.70;1.00
4054;DHT22;2042;47.956;9.222;2023-02-03T10:31:01;11.20;1.00
4054;DHT22;2042;47.956;9.222;2023-02-03T10:33:30;11.60;1.00
4054;DHT22;2042;47.956;9.222;2023-02-03T10:41:28;15.60;1.00
4054;DHT22;2042;47.956;9.222;2023-02-03T10:43:55;15.30;1.00
4054;DHT22;2042;47.956;9.222;2023-02-03T10:46:25;14.80;1.00
4054;DHT22;2042;47.956;9.222;2023-02-03T10:48:52;14.70;1.00
4054;DHT22;2042;47.956;9.222;2023-02-03T10:51:26;14.80;1.00
4054;DHT22;2042;47.956;9.222;2023-02-03T10:53:52;15.10;1.00
4054;DHT22;2042;47.956;9.222;2023-02-03T10:56:38;14.90;1.00
4054;DHT22;2042;47.956;9.222;2023-02-03T10:59:05;13.10;1.00
4054;DHT22;2042;47.956;9.222;2023-02-03T11:01:40;11.40;1.00
4054;DHT22;2042;47.956;9.222;2023-02-03T11:04:25;10.20;1.00
4054;DHT22;2042;47.956;9.222;2023-02-03T11:07:03;9.40;1.00
4054;DHT22;2042;47.956;9.222;2023-02-03T11:12:15;8.60;1.00
4054;DHT22;2042;47.956;9.222;2023-02-03T11:14:51;8.20;1.00
4054;DHT22;2042;47.956;9.222;2023-02-03T11:17:22;7.80;1.00
4054;DHT22;2042;47.956;9.222;2023-02-03T11:19:50;7.50;1.00
4054;DHT22;2042;47.956;9.222;2023-02-03T11:22:35;7.30;1.00
4054;DHT22;2042;47.956;9.222;2023-02-03T11:25:03;7.10;1.00
4054;DHT22;2042;47.956;9.222;2023-02-03T11:27:31;7.00;1.00
4054;DHT22;2042;47.956;9.222;2023-02-03T11:30:21;6.90;1.00
4054;DHT22;2042;47.956;9.222;2023-02-03T11:32:49;6.70;1.00
4054;DHT22;2042;47.956;9.222;2023-02-03T11:37:47;6.40;1.00
4054;DHT22;2042;47.956;9.222;2023-02-03T11:43:13;6.20;1.00
4054;DHT22;2042;47.956;9.222;2023-02-03T11:45:53;6.20;1.00
4054;DHT22;2042;47.956;9.222;2023-02-03T11:48:31;6.20;1.00
4054;DHT22;2042;47.956;9.222;2023-02-03T12:05:36;6.30;1.00
4054;DHT22;2042;47.956;9.222;2023-02-03T12:08:45;6.50;1.00
4054;DHT22;2042;47.956;9.222;2023-02-03T12:11:33;7.10;1.00
4054;DHT22;2042;47.956;9.222;2023-02-03T12:22:53;8.10;1.00
4054;DHT22;2042;47.956;9.222;2023-02-03T12:25:33;7.80;1.00
4054;DHT22;2042;47.956;9.222;2023-02-03T12:28:16;7.80;1.00
4054;DHT22;2042;47.956;9.222;2023-02-03T12:31:06;7.70;1.00
4054;DHT22;2042;47.956;9.222;2023-02-03T12:33:45;7.80;1.00
4054;DHT22;2042;47.956;9.222;2023-02-03T12:36:26;7.90;1.00
4054;DHT22;2042;47.956;9.222;2023-02-03T12:41:29;8.10;1.00
4054;DHT22;2042;47.956;9.222;2023-02-03T12:44:03;8.00;1.00
4054;DHT22;2042;47.956;9.222;2023-02-03T12:46:36;7.90;1.00
4054;DHT22;2042;47.956;9.222;2023-02-03T12:51:59;7.60;1.00
4054;DHT22;2042;47.956;9.222;2023-02-03T12:57:35;7.30;1.00
4054;DHT22;2042;47.956;9.222;2023-02-03T13:00:20;7.30;1.00
4054;DHT22;2042;47.956;9.222;2023-02-03T13:06:06;7.40;1.00
4054;DHT22;2042;47.956;9.222;2023-02-03T13:14:46;7.60;1.00
4054;DHT22;2042;47.956;9.222;2023-02-03T13:17:21;7.50;1.00
4054;DHT22;2042;47.956;9.222;2023-02-03T13:19:52;7.40;1.00
4054;DHT22;2042;47.956;9.222;2023-02-03T13:22:21;7.40;1.00
4054;DHT22;2042;47.956;9.222;2023-02-03T13:25:38;7.40;1.00
4054;DHT22;2042;47.956;9.222;2023-02-03T13:33:39;7.20;1.00
4054;DHT22;2042;47.956;9.222;2023-02-03T13:41:29;7.10;1.00
4054;DHT22;2042;47.956;9.222;2023-02-03T13:43:59;7.00;1.00
4054;DHT22;2042;47.956;9.222;2023-02-03T13:46:31;7.00;1.00
4054;DHT22;2042;47.956;9.222;2023-02-03T13:49:00;6.90;1.00
4054;DHT22;2042;47.956;9.222;2023-02-03T13:51:31;6.80;1.00
4054;DHT22;2042;47.956;9.222;2023-02-03T13:54:05;6.80;1.00
4054;DHT22;2042;47.956;9.222;2023-02-03T13:56:32;6.80;1.00
4054;DHT22;2042;47.956;9.222;2023-02-03T14:04:50;7.00;1.00
4054;DHT22;2042;47.956;9.222;2023-02-03T14:07:34;7.00;1.00
4054;DHT22;2042;47.956;9.222;2023-02-03T14:10:18;7.00;1.00
4054;DHT22;2042;47.956;9.222;2023-02-03T14:17:59;6.90;1.00
4054;DHT22;2042;47.956;9.222;2023-02-03T14:23:16;6.80;1.00
4054;DHT22;2042;47.956;9.222;2023-02-03T14:25:53;6.90;1.00
4054;DHT22;2042;47.956;9.222;2023-02-03T14:28:45;6.90;1.00
4054;DHT22;2042;47.956;9.222;2023-02-03T14:31:19;6.80;1.00
4054;DHT22;2042;47.956;9.222;2023-02-03T14:36:36;6.70;1.00
4054;DHT22;2042;47.956;9.222;2023-02-03T14:39:33;6.60;1.00
4054;DHT22;2042;47.956;9.222;2023-02-03T14:42:37;6.60;1.00
4054;DHT22;2042;47.956;9.222;2023-02-03T14:48:16;6.60;1.00
4054;DHT22;2042;47.956;9.222;2023-02-03T14:53:50;6.50;1.00
4054;DHT22;2042;47.956;9.222;2023-02-03T14:59:43;6.40;1.00
4054;DHT22;2042;47.956;9.222;2023-02-03T15:02:20;6.40;1.00
4054;DHT22;2042;47.956;9.222;2023-02-03T15:04:52;6.30;1.00
4054;DHT22;2042;47.956;9.222;2023-02-03T15:07:42;6.30;1.00
4054;DHT22;2042;47.956;9.222;2023-02-03T15:10:22;6.30;1.00
4054;DHT22;2042;47.956;9.222;2023-02-03T15:12:50;6.20;1.00
4054;DHT22;2042;47.956;9.222;2023-02-03T15:15:20;6.10;1.00
4054;DHT22;2042;47.956;9.222;2023-02-03T15:17:52;6.10;1.00
4054;DHT22;2042;47.956;9.222;2023-02-03T15:20:35;6.00;1.00
4054;DHT22;2042;47.956;9.222;2023-02-03T15:25:44;6.00;1.00
4054;DHT22;2042;47.956;9.222;2023-02-03T15:28:12;6.00;1.00
4054;DHT22;2042;47.956;9.222;2023-02-03T15:30:43;5.90;1.00
4054;DHT22;2042;47.956;9.222;2023-02-03T15:33:17;5.90;1.00
4054;DHT22;2042;47.956;9.222;2023-02-03T15:35:50;5.80;1.00
4054;DHT22;2042;47.956;9.222;2023-02-03T15:38:26;5.70;1.00
4054;DHT22;2042;47.956;9.222;2023-02-03T15:40:55;5.60;1.00
4054;DHT22;2042;47.956;9.222;2023-02-03T15:43:44;5.60;1.00
4054;DHT22;2042;47.956;9.222;2023-02-03T15:46:24;5.50;1.00
4054;DHT22;2042;47.956;9.222;2023-02-03T15:49:02;5.40;1.00
4054;DHT22;2042;47.956;9.222;2023-02-03T15:51:35;5.40;1.00
4054;DHT22;2042;47.956;9.222;2023-02-03T15:54:07;5.30;1.00
4054;DHT22;2042;47.956;9.222;2023-02-03T16:02:57;5.20;1.00
4054;DHT22;2042;47.956;9.222;2023-02-03T16:05:28;5.20;1.00
4054;DHT22;2042;47.956;9.222;2023-02-03T16:07:55;5.20;1.00
4054;DHT22;2042;47.956;9.222;2023-02-03T16:10:31;5.10;1.00
4054;DHT22;2042;47.956;9.222;2023-02-03T16:13:19;5.10;1.00
4054;DHT22;2042;47.956;9.222;2023-02-03T16:16:15;5.10;1.00
4054;DHT22;2042;47.956;9.222;2023-02-03T16:18:57;5.10;1.00
4054;DHT22;2042;47.956;9.222;2023-02-03T16:23:57;5.00;1.00
4054;DHT22;2042;47.956;9.222;2023-02-03T16:26:27;5.00;1.00
4054;DHT22;2042;47.956;9.222;2023-02-03T16:31:48;4.90;1.00
4054;DHT22;2042;47.956;9.222;2023-02-03T16:34:33;4.90;1.00
4054;DHT22;2042;47.956;9.222;2023-02-03T16:37:23;4.90;1.00
4054;DHT22;2042;47.956;9.222;2023-02-03T16:40:10;4.90;1.00
4054;DHT22;2042;47.956;9.222;2023-02-03T16:43:00;4.90;1.00
4054;DHT22;2042;47.956;9.222;2023-02-03T16:45:48;4.90;1.00
4054;DHT22;2042;47.956;9.222;2023-02-03T17:16:06;4.70;1.00
4054;DHT22;2042;47.956;9.222;2023-02-03T17:18:32;4.70;1.00
4054;DHT22;2042;47.956;9.222;2023-02-03T17:21:03;4.70;1.00
4054;DHT22;2042;47.956;9.222;2023-02-03T17:23:31;4.70;1.00
4054;DHT22;2042;47.956;9.222;2023-02-03T17:25:56;4.60;1.00
4054;DHT22;2042;47.956;9.222;2023-02-03T17:28:22;4.60;1.00
4054;DHT22;2042;47.956;9.222;2023-02-03T17:31:02;4.60;1.00
4054;DHT22;2042;47.956;9.222;2023-02-03T17:33:29;4.60;1.00
4054;DHT22;2042;47.956;9.222;2023-02-03T17:36:11;4.60;1.00
4054;DHT22;2042;47.956;9.222;2023-02-03T17:38:39;4.60;1.00
4054;DHT22;2042;47.956;9.222;2023-02-03T17:41:13;4.60;1.00
4054;DHT22;2042;47.956;9.222;2023-02-03T17:43:39;4.50;1.00
4054;DHT22;2042;47.956;9.222;2023-02-03T17:46:06;4.50;1.00
4054;DHT22;2042;47.956;9.222;2023-02-03T17:48:32;4.60;1.00
4054;DHT22;2042;47.956;9.222;2023-02-03T17:51:12;4.50;1.00
4054;DHT22;2042;47.956;9.222;2023-02-03T17:53:38;4.50;1.00
4054;DHT22;2042;47.956;9.222;2023-02-03T17:58:36;4.50;1.00
4054;DHT22;2042;47.956;9.222;2023-02-03T18:01:09;4.50;1.00
4054;DHT22;2042;47.956;9.222;2023-02-03T18:03:44;4.50;1.00
4054;DHT22;2042;47.956;9.222;2023-02-03T18:06:10;4.50;1.00
4054;DHT22;2042;47.956;9.222;2023-02-03T18:08:37;4.50;1.00
4054;DHT22;2042;47.956;9.222;2023-02-03T18:11:03;4.50;1.00
4054;DHT22;2042;47.956;9.222;2023-02-03T18:13:30;4.50;1.00
4054;DHT22;2042;47.956;9.222;2023-02-03T18:16:00;4.50;1.00
4054;DHT22;2042;47.956;9.222;2023-02-03T18:18:26;4.50;1.00
4054;DHT22;2042;47.956;9.222;2023-02-03T18:20:53;4.50;1.00
4054;DHT22;2042;47.956;9.222;2023-02-03T18:23:19;4.50;1.00
4054;DHT22;2042;47.956;9.222;2023-02-03T18:25:51;4.50;1.00
4054;DHT22;2042;47.956;9.222;2023-02-03T18:28:17;4.50;1.00
4054;DHT22;2042;47.956;9.222;2023-02-03T18:30:42;4.50;1.00
4054;DHT22;2042;47.956;9.222;2023-02-03T18:33:08;4.50;1.00
4054;DHT22;2042;47.956;9.222;2023-02-03T18:35:34;4.50;1.00
4054;DHT22;2042;47.956;9.222;2023-02-03T18:37:59;4.60;1.00
4054;DHT22;2042;47.956;9.222;2023-02-03T18:40:25;4.50;1.00
4054;DHT22;2042;47.956;9.222;2023-02-03T18:42:51;4.50;1.00
4054;DHT22;2042;47.956;9.222;2023-02-03T18:45:20;4.50;1.00
4054;DHT22;2042;47.956;9.222;2023-02-03T18:47:46;4.60;1.00
4054;DHT22;2042;47.956;9.222;2023-02-03T18:50:12;4.60;1.00
4054;DHT22;2042;47.956;9.222;2023-02-03T18:52:37;4.60;1.00
4054;DHT22;2042;47.956;9.222;2023-02-03T18:55:03;4.50;1.00
4054;DHT22;2042;47.956;9.222;2023-02-03T18:57:29;4.50;1.00
4054;DHT22;2042;47.956;9.222;2023-02-03T18:59:55;4.50;1.00
4054;DHT22;2042;47.956;9.222;2023-02-03T19:02:21;4.50;1.00
4054;DHT22;2042;47.956;9.222;2023-02-03T19:04:53;4.50;1.00
4054;DHT22;2042;47.956;9.222;2023-02-03T19:07:18;4.50;1.00
4054;DHT22;2042;47.956;9.222;2023-02-03T19:09:44;4.50;1.00
4054;DHT22;2042;47.956;9.222;2023-02-03T19:12:09;4.50;1.00
4054;DHT22;2042;47.956;9.222;2023-02-03T19:14:36;4.50;1.00
4054;DHT22;2042;47.956;9.222;2023-02-03T19:17:02;4.40;1.00
4054;DHT22;2042;47.956;9.222;2023-02-03T19:19:28;4.40;1.00
4054;DHT22;2042;47.956;9.222;2023-02-03T19:21:54;4.40;1.00
4054;DHT22;2042;47.956;9.222;2023-02-03T19:24:20;4.40;1.00
4054;DHT22;2042;47.956;9.222;2023-02-03T19:26:46;4.40;1.00
4054;DHT22;2042;47.956;9.222;2023-02-03T19:29:11;4.40;1.00
4054;DHT22;2042;47.956;9.222;2023-02-03T19:31:37;4.40;1.00
4054;DHT22;2042;47.956;9.222;2023-02-03T19:34:03;4.40;1.00
4054;DHT22;2042;47.956;9.222;2023-02-03T19:36:30;4.40;1.00
4054;DHT22;2042;47.956;9.222;2023-02-03T19:38:56;4.40;1.00
4054;DHT22;2042;47.956;9.222;2023-02-03T19:41:22;4.40;1.00
4054;DHT22;2042;47.956;9.222;2023-02-03T19:43:47;4.40;1.00
4054;DHT22;2042;47.956;9.222;2023-02-03T19:46:17;4.30;1.00
4054;DHT22;2042;47.956;9.222;2023-02-03T19:48:43;4.30;1.00
4054;DHT22;2042;47.956;9.222;2023-02-03T19:51:09;4.30;1.00
4054;DHT22;2042;47.956;9.222;2023-02-03T19:53:36;4.20;1.00
4054;DHT22;2042;47.956;9.222;2023-02-03T19:56:02;4.20;1.00
4054;DHT22;2042;47.956;9.222;2023-02-03T19:58:28;4.20;1.00
4054;DHT22;2042;47.956;9.222;2023-02-03T20:00:55;4.10;1.00
4054;DHT22;2042;47.956;9.222;2023-02-03T20:03:22;4.00;1.00
4054;DHT22;2042;47.956;9.222;2023-02-03T20:05:48;4.00;1.00